Terminal Aerodrome Forecast
Issued by NWS Albany, NY

Home | Current Version | Previous Version | Text Only | Print | Product List | Glossary On
Versions: 1 2 3 4 5 6 7 8 9 10 11 12 13 14 15 16 17 18 19 20 21 22 23 24
944
FTUS41 KALY 061735
TAFGFL
TAF
KGFL 061735Z 0618/0718 07004KT P6SM SCT015 BKN200
      TEMPO 0618/0619 BKN015 OVC200
     FM062200 08004KT P6SM OVC100
     FM070600 VRB03KT 5SM -SN BKN015 OVC050
     FM070800 VRB03KT 2SM -SN OVC008
     FM071700 18004KT P6SM SCT008 OVC015=

USA.gov is the U.S. government's official web portal to all federal, state and local government web resources and services.